createdAt,value
2019-02-26T00:00:58.519Z,46.39
2019-02-26T00:01:57.996Z,46.39
2019-02-26T00:03:01.725Z,46.39
2019-02-26T00:03:57.485Z,46.30
2019-02-26T00:04:58.527Z,46.30
2019-02-26T00:05:56.850Z,46.52
2019-02-26T00:06:57.928Z,46.19
2019-02-26T00:07:57.925Z,46.50
2019-02-26T00:08:58.777Z,46.30
2019-02-26T00:09:57.566Z,46.31
2019-02-26T00:10:58.586Z,46.11
2019-02-26T00:11:56.391Z,46.21
2019-02-26T00:12:56.405Z,46.42
2019-02-26T00:13:58.898Z,46.93
2019-02-26T00:14:56.931Z,46.83
2019-02-26T00:15:56.370Z,46.83
2019-02-26T00:16:56.353Z,46.83
2019-02-26T00:17:56.335Z,46.83
2019-02-26T00:19:00.792Z,46.62
2019-02-26T00:19:57.381Z,46.62
2019-02-26T00:20:58.514Z,47.13
2019-02-26T00:21:56.299Z,47.44
2019-02-26T00:22:57.544Z,47.55
2019-02-26T00:23:56.269Z,47.24
2019-02-26T00:24:56.284Z,47.67
2019-02-26T00:25:56.251Z,47.44
2019-02-26T00:26:56.240Z,47.67
2019-02-26T00:27:56.918Z,47.46
2019-02-26T00:28:57.214Z,47.46
2019-02-26T00:29:56.206Z,47.36
2019-02-26T00:30:57.276Z,47.49
2019-02-26T00:31:57.745Z,47.88
2019-02-26T00:32:58.243Z,48.28
2019-02-26T00:33:56.162Z,47.88
2019-02-26T00:34:58.032Z,47.97
2019-02-26T00:35:56.141Z,48.49
2019-02-26T00:36:57.248Z,48.61
2019-02-26T00:37:56.161Z,47.97
2019-02-26T00:38:58.128Z,47.67
2019-02-26T00:39:56.442Z,47.97
2019-02-26T00:40:57.800Z,47.97
2019-02-26T00:41:58.047Z,47.67
2019-02-26T00:42:59.001Z,47.67
2019-02-26T00:43:57.788Z,47.67
2019-02-26T00:44:57.715Z,47.88
2019-02-26T00:45:58.353Z,47.67
2019-02-26T00:46:57.566Z,47.46
2019-02-26T00:47:56.063Z,47.88
2019-02-26T00:48:57.081Z,47.69
2019-02-26T00:49:55.992Z,47.67
2019-02-26T00:50:56.600Z,47.77
2019-02-26T00:51:55.959Z,48.08
2019-02-26T00:52:57.081Z,47.67
2019-02-26T00:53:57.529Z,48.18
2019-02-26T00:54:57.790Z,47.67
2019-02-26T00:55:58.427Z,47.97
2019-02-26T00:56:59.073Z,47.89
2019-02-26T00:57:58.854Z,47.77
2019-02-26T00:58:55.927Z,47.97
2019-02-26T00:59:55.882Z,47.97
2019-02-26T01:00:55.870Z,47.79
2019-02-26T01:01:57.008Z,48.00
2019-02-26T01:02:55.843Z,48.31
2019-02-26T01:03:55.837Z,48.31
2019-02-26T01:04:55.861Z,48.21
2019-02-26T01:05:57.132Z,48.00
2019-02-26T01:06:57.294Z,48.21
2019-02-26T01:07:55.792Z,48.00
2019-02-26T01:08:55.786Z,47.79
2019-02-26T01:09:56.937Z,47.89
2019-02-26T01:10:57.082Z,48.51
2019-02-26T01:11:55.748Z,48.82
2019-02-26T01:12:56.555Z,48.31
2019-02-26T01:13:57.398Z,48.72
2019-02-26T01:14:55.712Z,48.51
2019-02-26T01:15:55.729Z,48.54
2019-02-26T01:16:55.694Z,48.43
2019-02-26T01:18:05.538Z,48.74
2019-02-26T01:18:55.680Z,49.15
2019-02-26T01:19:56.494Z,49.15
2019-02-26T01:20:57.303Z,49.15
2019-02-26T01:21:55.635Z,49.05
2019-02-26T01:22:55.655Z,49.15
2019-02-26T01:23:56.703Z,49.35
2019-02-26T01:24:56.281Z,49.15
2019-02-26T01:25:55.606Z,49.15
2019-02-26T01:26:55.584Z,49.05
2019-02-26T01:27:57.556Z,49.05
2019-02-26T01:28:56.055Z,49.27
2019-02-26T01:29:55.915Z,49.05
2019-02-26T01:30:56.185Z,49.26
2019-02-26T01:31:55.538Z,49.87
2019-02-26T01:32:57.603Z,49.97
2019-02-26T01:33:57.277Z,49.58
2019-02-26T01:34:55.502Z,49.79
2019-02-26T01:35:57.524Z,49.87
2019-02-26T01:36:55.477Z,49.89
2019-02-26T01:37:55.859Z,49.66
2019-02-26T01:38:55.455Z,49.77
2019-02-26T01:39:55.492Z,49.89
2019-02-26T01:40:55.957Z,49.99
2019-02-26T01:41:56.360Z,49.58
2019-02-26T01:42:57.861Z,49.99
2019-02-26T01:43:55.402Z,50.51
2019-02-26T01:44:55.394Z,50.10
2019-02-26T01:45:55.544Z,49.79
2019-02-26T01:46:56.247Z,50.30
2019-02-26T01:47:55.363Z,50.20
2019-02-26T01:48:57.444Z,50.51
2019-02-26T01:49:55.338Z,50.40
2019-02-26T01:50:57.448Z,50.10
2019-02-26T01:51:55.319Z,50.20
2019-02-26T01:52:56.783Z,50.51
2019-02-26T01:53:55.301Z,50.92
2019-02-26T01:54:55.765Z,51.15
2019-02-26T01:55:55.283Z,51.53
2019-02-26T01:56:55.305Z,51.45
2019-02-26T01:57:58.492Z,51.45
2019-02-26T01:58:56.905Z,51.66
2019-02-26T01:59:55.234Z,50.94
2019-02-26T02:00:55.951Z,51.15
2019-02-26T02:01:56.039Z,51.04
2019-02-26T02:02:55.240Z,50.84
2019-02-26T02:03:56.251Z,51.45
2019-02-26T02:04:57.158Z,50.94
2019-02-26T02:05:55.172Z,50.74
2019-02-26T02:06:57.110Z,51.04
2019-02-26T02:07:55.983Z,50.94
2019-02-26T02:08:55.684Z,50.94
2019-02-26T02:09:55.641Z,51.15
2019-02-26T02:10:57.126Z,50.92
2019-02-26T02:11:57.435Z,50.74
2019-02-26T02:12:57.693Z,51.45
2019-02-26T02:13:55.125Z,51.66
2019-02-26T02:14:55.074Z,51.76
2019-02-26T02:15:55.055Z,51.56
2019-02-26T02:16:55.056Z,51.89
2019-02-26T02:17:57.238Z,51.97
2019-02-26T02:18:55.870Z,51.99
2019-02-26T02:19:55.021Z,51.79
2019-02-26T02:20:55.007Z,51.68
2019-02-26T02:21:56.056Z,51.89
2019-02-26T02:22:56.025Z,51.99
2019-02-26T02:23:55.025Z,52.09
2019-02-26T02:24:55.658Z,52.09
2019-02-26T02:25:54.959Z,52.20
2019-02-26T02:26:55.567Z,52.09
2019-02-26T02:27:56.903Z,52.40
2019-02-26T02:28:54.921Z,52.09
2019-02-26T02:29:56.081Z,52.20
2019-02-26T02:30:54.908Z,52.22
2019-02-26T02:31:58.452Z,52.40
2019-02-26T02:32:57.554Z,52.53
2019-02-26T02:33:54.864Z,53.15
2019-02-26T02:34:58.344Z,53.15
2019-02-26T02:35:55.885Z,53.23
2019-02-26T02:36:54.841Z,52.71
2019-02-26T02:37:57.101Z,53.02
2019-02-26T02:38:54.822Z,53.12
2019-02-26T02:39:54.815Z,52.84
2019-02-26T02:40:55.017Z,53.02
2019-02-26T02:41:55.054Z,52.94
2019-02-26T02:42:54.771Z,53.05
2019-02-26T02:43:54.761Z,53.02
2019-02-26T02:44:54.757Z,52.51
2019-02-26T02:45:56.386Z,52.94
2019-02-26T02:46:54.767Z,53.15
2019-02-26T02:47:57.691Z,53.56
2019-02-26T02:48:55.711Z,53.45
2019-02-26T02:49:54.774Z,53.25
2019-02-26T02:50:54.692Z,53.87
2019-02-26T02:51:54.734Z,53.64
2019-02-26T02:52:56.847Z,53.45
2019-02-26T02:53:57.316Z,53.97
2019-02-26T02:54:54.657Z,54.28
2019-02-26T02:55:54.635Z,53.97
2019-02-26T02:56:56.643Z,54.07
2019-02-26T02:57:57.264Z,53.97
2019-02-26T02:58:54.608Z,54.17
2019-02-26T02:59:56.863Z,54.38
2019-02-26T03:00:57.109Z,54.59
2019-02-26T03:01:57.087Z,54.28
2019-02-26T03:02:56.299Z,54.38
2019-02-26T03:03:57.956Z,54.79
2019-02-26T03:04:54.535Z,54.69
2019-02-26T03:05:54.529Z,54.79
2019-02-26T03:06:55.593Z,54.59
2019-02-26T03:07:56.341Z,54.69
2019-02-26T03:08:54.500Z,54.90
2019-02-26T03:09:54.502Z,54.59
2019-02-26T03:10:54.479Z,54.69
2019-02-26T03:11:55.015Z,54.69
2019-02-26T03:12:57.565Z,54.90
2019-02-26T03:13:55.469Z,54.59
2019-02-26T03:14:56.265Z,54.59
2019-02-26T03:15:56.617Z,54.69
2019-02-26T03:16:54.432Z,54.69
2019-02-26T03:17:54.404Z,54.69
2019-02-26T03:18:54.441Z,54.59
2019-02-26T03:19:55.954Z,54.49
2019-02-26T03:20:56.609Z,54.69
2019-02-26T03:21:55.029Z,54.49
2019-02-26T03:22:54.366Z,54.92
2019-02-26T03:23:54.366Z,54.61
2019-02-26T03:24:56.887Z,54.90
2019-02-26T03:25:55.119Z,54.72
2019-02-26T03:26:54.305Z,54.72
2019-02-26T03:27:54.291Z,54.61
2019-02-26T03:28:54.346Z,54.61
2019-02-26T03:29:56.221Z,54.61
2019-02-26T03:30:54.272Z,54.61
2019-02-26T03:31:55.432Z,54.61
2019-02-26T03:32:58.521Z,54.51
2019-02-26T03:34:00.064Z,54.61
2019-02-26T03:34:55.219Z,55.54
2019-02-26T03:35:54.210Z,54.51
2019-02-26T03:36:54.194Z,54.41
2019-02-26T03:37:57.697Z,55.43
2019-02-26T03:38:56.536Z,55.64
2019-02-26T03:39:55.239Z,55.54
2019-02-26T03:40:55.483Z,55.77
2019-02-26T03:41:56.352Z,56.18
2019-02-26T03:42:54.139Z,55.98
2019-02-26T03:43:55.010Z,56.18
2019-02-26T03:44:54.114Z,56.38
2019-02-26T03:45:54.145Z,56.38
2019-02-26T03:46:54.093Z,55.98
2019-02-26T03:47:55.427Z,55.98
2019-02-26T03:48:54.066Z,56.18
2019-02-26T03:49:54.053Z,55.98
2019-02-26T03:50:54.089Z,55.87
2019-02-26T03:51:59.241Z,55.98
2019-02-26T03:52:55.021Z,55.77
2019-02-26T03:53:54.014Z,56.08
2019-02-26T03:54:54.000Z,56.18
2019-02-26T03:55:59.611Z,56.18
2019-02-26T03:56:54.986Z,55.98
2019-02-26T03:57:56.605Z,56.49
2019-02-26T03:58:57.029Z,56.38
2019-02-26T03:59:53.953Z,56.38
2019-02-26T04:00:53.938Z,55.98
2019-02-26T04:01:53.966Z,56.70
2019-02-26T04:02:53.915Z,56.36
2019-02-26T04:03:54.672Z,56.36
2019-02-26T04:04:56.562Z,56.08
2019-02-26T04:05:57.119Z,56.67
2019-02-26T04:06:55.855Z,56.70
2019-02-26T04:07:55.660Z,56.38
2019-02-26T04:08:55.938Z,56.80
2019-02-26T04:09:55.737Z,56.70
2019-02-26T04:10:55.978Z,56.90
2019-02-26T04:11:55.392Z,56.49
2019-02-26T04:12:55.207Z,56.70
2019-02-26T04:13:56.491Z,56.49
2019-02-26T04:14:53.798Z,56.49
2019-02-26T04:15:56.357Z,56.80
2019-02-26T04:16:55.932Z,56.70
2019-02-26T04:17:53.797Z,56.59
2019-02-26T04:18:53.748Z,56.70
2019-02-26T04:19:53.739Z,56.70
2019-02-26T04:20:53.720Z,56.57
2019-02-26T04:21:53.713Z,56.46
2019-02-26T04:22:56.869Z,56.87
2019-02-26T04:23:53.742Z,56.80
2019-02-26T04:24:55.038Z,57.29
2019-02-26T04:25:56.878Z,56.87
2019-02-26T04:26:53.661Z,56.90
2019-02-26T04:27:53.650Z,56.57
2019-02-26T04:28:53.673Z,56.49
2019-02-26T04:29:53.631Z,56.49
2019-02-26T04:30:53.631Z,56.70
2019-02-26T04:31:54.768Z,56.57
2019-02-26T04:32:53.593Z,56.70
2019-02-26T04:33:55.835Z,56.80
2019-02-26T04:34:54.657Z,56.70
2019-02-26T04:35:55.470Z,56.90
2019-02-26T04:36:53.571Z,56.80
2019-02-26T04:37:55.530Z,56.70
2019-02-26T04:38:55.611Z,57.01
2019-02-26T04:39:53.545Z,56.90
2019-02-26T04:40:57.678Z,57.01
2019-02-26T04:41:54.501Z,56.90
2019-02-26T04:42:53.490Z,56.70
2019-02-26T04:43:54.836Z,56.70
2019-02-26T04:44:55.211Z,56.49
2019-02-26T04:45:53.485Z,56.52
2019-02-26T04:46:54.019Z,57.34
2019-02-26T04:47:56.914Z,57.31
2019-02-26T04:48:53.431Z,57.44
2019-02-26T04:49:54.386Z,57.34
2019-02-26T04:50:53.446Z,57.31
2019-02-26T04:51:53.394Z,57.44
2019-02-26T04:52:55.382Z,58.16
2019-02-26T04:53:54.169Z,58.37
2019-02-26T04:54:53.366Z,58.58
2019-02-26T04:55:53.392Z,58.47
2019-02-26T04:56:53.348Z,57.42
2019-02-26T04:57:53.952Z,58.06
2019-02-26T04:58:53.315Z,57.86
2019-02-26T04:59:55.489Z,57.86
2019-02-26T05:00:53.309Z,58.37
2019-02-26T05:01:55.132Z,58.37
2019-02-26T05:02:53.278Z,57.86
2019-02-26T05:03:53.267Z,58.37
2019-02-26T05:04:53.251Z,57.65
2019-02-26T05:05:55.956Z,58.03
2019-02-26T05:06:53.272Z,58.37
2019-02-26T05:07:53.214Z,58.06
2019-02-26T05:08:55.975Z,57.65
2019-02-26T05:09:55.909Z,58.24
2019-02-26T05:10:55.020Z,57.44
2019-02-26T05:11:53.826Z,58.16
2019-02-26T05:12:56.691Z,58.34
2019-02-26T05:13:53.157Z,58.26
2019-02-26T05:14:53.152Z,57.65
2019-02-26T05:15:53.140Z,57.42
2019-02-26T05:16:53.119Z,57.65
2019-02-26T05:17:53.146Z,58.34
2019-02-26T05:18:54.917Z,57.52
2019-02-26T05:19:53.087Z,58.14
2019-02-26T05:20:53.120Z,57.96
2019-02-26T05:21:53.996Z,57.65
2019-02-26T05:22:54.761Z,58.34
2019-02-26T05:23:55.082Z,57.44
2019-02-26T05:24:53.045Z,57.82
2019-02-26T05:25:53.025Z,58.34
2019-02-26T05:26:53.061Z,58.34
2019-02-26T05:27:53.011Z,57.93
2019-02-26T05:28:53.034Z,57.73
2019-02-26T05:29:54.738Z,58.47
2019-02-26T05:30:53.025Z,58.47
2019-02-26T05:31:55.444Z,59.17
2019-02-26T05:32:56.599Z,57.96
2019-02-26T05:33:55.366Z,58.37
2019-02-26T05:34:52.937Z,58.24
2019-02-26T05:35:52.924Z,57.96
2019-02-26T05:36:52.907Z,57.96
2019-02-26T05:37:55.481Z,57.96
2019-02-26T05:38:54.623Z,58.06
2019-02-26T05:39:54.660Z,58.26
2019-02-26T05:40:54.034Z,57.96
2019-02-26T05:41:54.945Z,57.93
2019-02-26T05:42:53.340Z,57.34
2019-02-26T05:43:56.067Z,58.34
2019-02-26T05:44:56.252Z,57.44
2019-02-26T05:45:54.896Z,57.54
2019-02-26T05:46:54.223Z,57.86
2019-02-26T05:47:54.735Z,57.75
2019-02-26T05:48:53.810Z,58.37
2019-02-26T05:49:52.774Z,58.47
2019-02-26T05:50:52.754Z,58.16
2019-02-26T05:51:53.531Z,57.65
2019-02-26T05:52:57.507Z,58.47
2019-02-26T05:53:53.732Z,58.26
2019-02-26T05:54:52.791Z,58.37
2019-02-26T05:55:54.073Z,59.19
2019-02-26T05:56:52.693Z,59.09
2019-02-26T05:57:52.681Z,58.89
2019-02-26T05:58:52.681Z,58.78
2019-02-26T05:59:52.687Z,58.16
2019-02-26T06:00:52.661Z,58.89
2019-02-26T06:01:55.360Z,58.37
2019-02-26T06:02:52.628Z,58.06
2019-02-26T06:03:52.648Z,58.37
2019-02-26T06:04:52.631Z,58.89
2019-02-26T06:05:54.894Z,58.78
2019-02-26T06:06:55.506Z,58.78
2019-02-26T06:07:52.578Z,58.68
2019-02-26T06:08:55.298Z,59.19
2019-02-26T06:09:54.231Z,58.89
2019-02-26T06:10:52.540Z,58.68
2019-02-26T06:11:52.550Z,58.98
2019-02-26T06:12:52.529Z,58.98
2019-02-26T06:13:52.514Z,58.89
2019-02-26T06:14:53.981Z,58.68
2019-02-26T06:15:55.141Z,58.89
2019-02-26T06:16:55.718Z,58.78
2019-02-26T06:17:53.413Z,59.19
2019-02-26T06:18:54.356Z,58.68
2019-02-26T06:19:52.452Z,58.47
2019-02-26T06:20:53.523Z,58.47
2019-02-26T06:21:54.264Z,58.89
2019-02-26T06:22:52.413Z,59.09
2019-02-26T06:23:52.433Z,58.68
2019-02-26T06:24:55.020Z,59.19
2019-02-26T06:25:55.169Z,58.68
2019-02-26T06:26:52.416Z,58.89
2019-02-26T06:27:52.450Z,58.78
2019-02-26T06:28:52.906Z,58.68
2019-02-26T06:29:55.096Z,58.89
2019-02-26T06:30:52.341Z,58.26
2019-02-26T06:31:52.329Z,58.03
2019-02-26T06:32:52.306Z,59.06
2019-02-26T06:33:52.292Z,58.34
2019-02-26T06:34:52.319Z,58.34
2019-02-26T06:35:52.272Z,58.34
2019-02-26T06:36:53.286Z,58.24
2019-02-26T06:37:52.260Z,58.14
2019-02-26T06:38:53.991Z,58.24
2019-02-26T06:39:54.851Z,57.65
2019-02-26T06:40:52.219Z,58.54
2019-02-26T06:41:52.209Z,57.62
2019-02-26T06:42:52.196Z,58.34
2019-02-26T06:43:52.696Z,57.82
2019-02-26T06:44:52.208Z,57.65
2019-02-26T06:45:52.182Z,58.47
2019-02-26T06:46:52.152Z,58.06
2019-02-26T06:47:53.994Z,57.75
2019-02-26T06:48:52.138Z,58.58
2019-02-26T06:49:52.726Z,58.47
2019-02-26T06:50:52.140Z,59.09
2019-02-26T06:51:52.639Z,58.47
2019-02-26T06:52:52.115Z,58.47
2019-02-26T06:53:54.086Z,58.98
2019-02-26T06:54:56.895Z,58.37
2019-02-26T06:55:53.093Z,58.37
2019-02-26T06:56:52.850Z,57.96
2019-02-26T06:57:52.809Z,58.16
2019-02-26T06:58:52.034Z,58.58
2019-02-26T06:59:53.695Z,58.26
2019-02-26T07:00:55.132Z,58.14
2019-02-26T07:01:55.556Z,58.26
2019-02-26T07:02:51.994Z,58.37
2019-02-26T07:03:55.757Z,57.44
2019-02-26T07:04:51.993Z,57.65
2019-02-26T07:05:51.948Z,57.62
2019-02-26T07:06:55.169Z,57.52
2019-02-26T07:07:54.236Z,58.26
2019-02-26T07:08:53.497Z,57.86
2019-02-26T07:09:51.914Z,58.16
2019-02-26T07:10:51.901Z,58.14
2019-02-26T07:11:51.901Z,58.14
2019-02-26T07:12:51.914Z,58.03
2019-02-26T07:13:53.722Z,58.37
2019-02-26T07:14:53.531Z,58.26
2019-02-26T07:15:51.842Z,57.65
2019-02-26T07:16:51.857Z,57.82
2019-02-26T07:17:51.851Z,58.16
2019-02-26T07:18:51.816Z,58.14
2019-02-26T07:19:53.848Z,58.26
2019-02-26T07:20:53.129Z,58.75
2019-02-26T07:21:53.062Z,58.47
2019-02-26T07:22:51.774Z,58.26
2019-02-26T07:23:54.051Z,58.16
2019-02-26T07:24:53.842Z,59.37
2019-02-26T07:25:51.739Z,58.96
2019-02-26T07:26:51.726Z,60.50
2019-02-26T07:27:53.572Z,58.54
2019-02-26T07:28:51.744Z,59.68
2019-02-26T07:29:52.361Z,59.99
2019-02-26T07:30:51.702Z,58.93
2019-02-26T07:31:52.264Z,57.90
2019-02-26T07:32:51.666Z,58.42
2019-02-26T07:33:53.361Z,58.42
2019-02-26T07:34:52.181Z,58.18
2019-02-26T07:35:52.356Z,59.11
2019-02-26T07:36:52.516Z,58.39
2019-02-26T07:37:52.371Z,58.08
2019-02-26T07:38:53.573Z,56.95
2019-02-26T07:39:51.709Z,56.44
2019-02-26T07:40:51.584Z,56.44
2019-02-26T07:41:52.345Z,57.16
2019-02-26T07:42:51.586Z,57.13
2019-02-26T07:43:52.653Z,56.95
2019-02-26T07:44:51.529Z,56.54
2019-02-26T07:45:51.545Z,56.41
2019-02-26T07:46:51.513Z,56.82
2019-02-26T07:47:54.083Z,56.59
2019-02-26T07:48:53.889Z,56.59
2019-02-26T07:49:56.515Z,55.77
2019-02-26T07:50:52.484Z,56.38
2019-02-26T07:51:51.457Z,57.62
2019-02-26T07:52:52.170Z,57.31
2019-02-26T07:53:53.490Z,57.18
2019-02-26T07:54:51.924Z,57.49
2019-02-26T07:55:51.459Z,56.77
2019-02-26T07:56:52.515Z,55.72
2019-02-26T07:57:53.172Z,55.72
2019-02-26T07:58:51.380Z,55.62
2019-02-26T07:59:51.367Z,55.10
2019-02-26T08:00:52.192Z,56.54
2019-02-26T08:01:51.378Z,55.41
2019-02-26T08:02:53.596Z,54.36
2019-02-26T08:03:53.132Z,54.25
2019-02-26T08:04:51.343Z,54.46
2019-02-26T08:05:51.306Z,54.57
2019-02-26T08:06:52.341Z,54.02
2019-02-26T08:07:53.870Z,53.92
2019-02-26T08:08:51.270Z,53.51
2019-02-26T08:09:51.264Z,53.61
2019-02-26T08:10:53.142Z,53.72
2019-02-26T08:11:51.273Z,54.21
2019-02-26T08:12:51.236Z,53.41
2019-02-26T08:13:51.860Z,52.97
2019-02-26T08:14:51.216Z,53.80
2019-02-26T08:15:52.834Z,53.49
2019-02-26T08:16:53.608Z,53.39
2019-02-26T08:17:57.335Z,53.49
2019-02-26T08:18:53.955Z,52.26
2019-02-26T08:19:51.155Z,53.18
2019-02-26T08:20:52.778Z,53.26
2019-02-26T08:21:53.204Z,52.75
2019-02-26T08:22:52.234Z,52.00
2019-02-26T08:23:52.761Z,52.00
2019-02-26T08:24:52.868Z,51.37
2019-02-26T08:25:52.450Z,51.47
2019-02-26T08:26:51.093Z,51.14
2019-02-26T08:27:52.175Z,50.63
2019-02-26T08:28:51.059Z,50.63
2019-02-26T08:29:51.700Z,50.01
2019-02-26T08:30:52.998Z,49.68
2019-02-26T08:31:52.126Z,50.20
2019-02-26T08:32:53.452Z,49.76
2019-02-26T08:33:51.774Z,49.46
2019-02-26T08:34:51.029Z,49.46
2019-02-26T08:35:51.174Z,49.55
2019-02-26T08:36:50.976Z,49.46
2019-02-26T08:37:50.985Z,49.87
2019-02-26T08:38:52.064Z,48.94
2019-02-26T08:39:50.980Z,49.13
2019-02-26T08:40:50.988Z,48.92
2019-02-26T08:41:50.958Z,49.10
2019-02-26T08:42:50.927Z,48.47
2019-02-26T08:43:51.599Z,48.39
2019-02-26T08:44:51.859Z,48.28
2019-02-26T08:45:50.882Z,48.26
2019-02-26T08:46:50.875Z,47.75
2019-02-26T08:47:50.858Z,48.16
2019-02-26T08:48:50.957Z,48.14
2019-02-26T08:49:50.870Z,47.22
2019-02-26T08:50:50.823Z,46.36
2019-02-26T08:51:50.811Z,45.73
2019-02-26T08:52:53.488Z,44.63
2019-02-26T08:53:51.842Z,42.09
2019-02-26T08:54:50.855Z,39.44
2019-02-26T08:55:51.601Z,37.24
2019-02-26T08:56:50.875Z,35.35
2019-02-26T08:57:51.948Z,33.59
2019-02-26T08:58:50.744Z,33.23
2019-02-26T08:59:52.285Z,32.36
2019-02-26T09:00:50.720Z,34.74
2019-02-26T09:01:50.704Z,35.50
2019-02-26T09:02:53.766Z,35.70
2019-02-26T09:03:53.154Z,34.86
2019-02-26T09:04:50.733Z,34.22
2019-02-26T09:05:51.595Z,34.25
2019-02-26T09:06:52.420Z,35.50
2019-02-26T09:07:50.740Z,36.04
2019-02-26T09:08:50.650Z,36.57
2019-02-26T09:09:52.490Z,37.72
2019-02-26T09:10:50.638Z,38.37
2019-02-26T09:11:52.804Z,38.99
2019-02-26T09:12:51.855Z,39.21
2019-02-26T09:13:50.586Z,39.62
2019-02-26T09:14:50.565Z,39.51
2019-02-26T09:15:50.595Z,40.34
2019-02-26T09:16:52.578Z,40.22
2019-02-26T09:17:50.599Z,40.55
2019-02-26T09:18:50.533Z,40.99
2019-02-26T09:19:52.635Z,41.60
2019-02-26T09:20:51.537Z,42.05
2019-02-26T09:21:52.383Z,43.38
2019-02-26T09:22:53.459Z,43.91
2019-02-26T09:23:55.855Z,44.02
2019-02-26T09:24:51.960Z,43.93
2019-02-26T09:25:54.110Z,44.75
2019-02-26T09:26:52.107Z,45.28
2019-02-26T09:27:50.531Z,45.68
2019-02-26T09:28:52.282Z,45.59
2019-02-26T09:29:51.454Z,46.11
2019-02-26T09:30:50.413Z,46.11
2019-02-26T09:31:50.459Z,45.81
2019-02-26T09:32:52.417Z,46.62
2019-02-26T09:33:50.406Z,46.44
2019-02-26T09:34:52.091Z,46.14
2019-02-26T09:35:52.125Z,46.24
2019-02-26T09:36:52.761Z,46.44
2019-02-26T09:37:52.714Z,47.17
2019-02-26T09:38:51.525Z,46.67
2019-02-26T09:39:52.039Z,47.28
2019-02-26T09:40:52.271Z,47.58
2019-02-26T09:41:50.309Z,47.89
2019-02-26T09:42:52.377Z,47.08
2019-02-26T09:43:50.260Z,48.10
2019-02-26T09:44:50.639Z,47.89
2019-02-26T09:45:51.018Z,48.30
2019-02-26T09:46:50.257Z,47.38
2019-02-26T09:47:54.316Z,47.17
2019-02-26T09:48:50.274Z,47.69
2019-02-26T09:49:51.611Z,47.69
2019-02-26T09:50:50.211Z,47.49
2019-02-26T09:51:50.210Z,47.89
2019-02-26T09:52:50.839Z,47.69
2019-02-26T09:53:52.132Z,48.11
2019-02-26T09:54:51.132Z,48.11
2019-02-26T09:55:50.146Z,48.32
2019-02-26T09:56:50.124Z,48.93
2019-02-26T09:57:50.111Z,49.24
2019-02-26T09:58:50.841Z,48.52
2019-02-26T09:59:52.106Z,48.73
2019-02-26T10:00:51.142Z,48.83
2019-02-26T10:01:50.064Z,49.24
2019-02-26T10:02:52.018Z,49.04
2019-02-26T10:03:50.051Z,49.04
2019-02-26T10:04:51.975Z,49.34
2019-02-26T10:05:52.574Z,49.34
2019-02-26T10:06:50.007Z,49.75
2019-02-26T10:07:52.267Z,49.57
2019-02-26T10:08:51.352Z,49.34
2019-02-26T10:09:50.016Z,49.65
2019-02-26T10:10:51.857Z,49.65
2019-02-26T10:11:51.596Z,50.05
2019-02-26T10:12:51.789Z,49.34
2019-02-26T10:13:51.182Z,49.44
2019-02-26T10:14:52.266Z,49.75
2019-02-26T10:15:49.921Z,49.95
2019-02-26T10:16:51.943Z,49.54
2019-02-26T10:17:49.889Z,50.15
2019-02-26T10:18:51.729Z,49.73
2019-02-26T10:19:49.903Z,49.32
2019-02-26T10:20:50.447Z,49.24
2019-02-26T10:21:49.856Z,49.01
2019-02-26T10:22:49.875Z,49.01
2019-02-26T10:23:52.126Z,48.81
2019-02-26T10:24:49.865Z,49.01
2019-02-26T10:25:52.985Z,48.91
2019-02-26T10:26:49.791Z,48.38
2019-02-26T10:27:49.784Z,48.27
2019-02-26T10:28:53.566Z,48.18
2019-02-26T10:29:50.773Z,48.07
2019-02-26T10:30:49.809Z,47.85
2019-02-26T10:31:49.740Z,47.64
2019-02-26T10:32:49.736Z,46.91
2019-02-26T10:33:50.856Z,47.31
2019-02-26T10:34:49.719Z,47.31
2019-02-26T10:35:49.968Z,47.11
2019-02-26T10:36:51.873Z,46.78
2019-02-26T10:37:49.712Z,47.19
2019-02-26T10:38:50.906Z,47.39
2019-02-26T10:39:51.665Z,47.62
2019-02-26T10:40:53.944Z,47.29
2019-02-26T10:41:50.661Z,47.09
2019-02-26T10:42:49.633Z,46.05
2019-02-26T10:43:49.621Z,46.36
2019-02-26T10:44:49.629Z,46.44
2019-02-26T10:45:50.549Z,46.36
2019-02-26T10:46:49.629Z,45.84
2019-02-26T10:47:51.260Z,45.84
2019-02-26T10:48:50.359Z,45.95
2019-02-26T10:49:51.375Z,46.15
2019-02-26T10:50:51.742Z,46.05
2019-02-26T10:51:49.564Z,46.05
2019-02-26T10:52:49.547Z,45.64
2019-02-26T10:53:49.567Z,45.97
2019-02-26T10:54:49.512Z,45.97
2019-02-26T10:55:49.516Z,46.37
2019-02-26T10:56:49.506Z,46.28
2019-02-26T10:57:49.509Z,47.19
2019-02-26T10:58:49.464Z,47.01
2019-02-26T10:59:49.449Z,47.01
2019-02-26T11:00:50.649Z,47.09
2019-02-26T11:01:51.987Z,47.21
2019-02-26T11:02:51.075Z,47.19
2019-02-26T11:03:52.167Z,47.39
2019-02-26T11:04:52.717Z,47.09
2019-02-26T11:05:52.040Z,47.09
2019-02-26T11:06:49.396Z,47.29
2019-02-26T11:07:49.363Z,47.80
2019-02-26T11:08:51.180Z,48.08
2019-02-26T11:09:51.045Z,46.86
2019-02-26T11:10:50.248Z,47.17
2019-02-26T11:11:49.355Z,46.05
2019-02-26T11:12:50.539Z,46.45
2019-02-26T11:13:51.931Z,46.36
2019-02-26T11:14:49.330Z,47.27
2019-02-26T11:15:51.659Z,47.17
2019-02-26T11:16:49.261Z,47.37
2019-02-26T11:17:51.333Z,46.56
2019-02-26T11:18:49.247Z,46.33
2019-02-26T11:19:49.266Z,46.33
2019-02-26T11:20:50.310Z,46.64
2019-02-26T11:21:50.836Z,46.23
2019-02-26T11:22:52.010Z,45.93
2019-02-26T11:23:49.243Z,45.42
2019-02-26T11:24:50.864Z,46.01
2019-02-26T11:25:49.198Z,45.93
2019-02-26T11:26:49.168Z,45.62
2019-02-26T11:27:49.157Z,46.03
2019-02-26T11:28:49.130Z,47.14
2019-02-26T11:29:49.176Z,46.31
2019-02-26T11:30:51.577Z,46.53
2019-02-26T11:31:49.723Z,46.64
2019-02-26T11:32:49.094Z,46.33
2019-02-26T11:33:49.089Z,46.31
2019-02-26T11:34:50.844Z,46.64
2019-02-26T11:35:51.314Z,46.41
2019-02-26T11:36:49.053Z,46.21
2019-02-26T11:37:50.310Z,46.03
2019-02-26T11:38:49.030Z,46.82
2019-02-26T11:39:49.019Z,46.62
2019-02-26T11:40:49.076Z,47.22
2019-02-26T11:41:51.375Z,46.21
2019-02-26T11:42:51.123Z,46.11
2019-02-26T11:43:48.974Z,46.11
2019-02-26T11:44:48.963Z,46.21
2019-02-26T11:45:48.957Z,47.53
2019-02-26T11:46:51.306Z,47.33
2019-02-26T11:47:48.936Z,48.14
2019-02-26T11:48:50.209Z,47.33
2019-02-26T11:49:48.906Z,48.14
2019-02-26T11:50:48.903Z,47.94
2019-02-26T11:51:48.973Z,47.74
2019-02-26T11:52:51.914Z,46.59
2019-02-26T11:53:48.870Z,47.30
2019-02-26T11:54:48.851Z,46.25
2019-02-26T11:55:49.914Z,46.33
2019-02-26T11:56:49.791Z,46.43
2019-02-26T11:57:49.762Z,45.72
2019-02-26T11:58:48.813Z,45.19
2019-02-26T11:59:48.809Z,45.59
2019-02-26T12:00:50.636Z,45.29
2019-02-26T12:01:48.823Z,45.42
2019-02-26T12:02:48.770Z,45.31
2019-02-26T12:03:48.754Z,45.43
2019-02-26T12:04:48.751Z,46.14
2019-02-26T12:05:48.748Z,45.94
2019-02-26T12:06:58.607Z,45.66
2019-02-26T12:07:51.329Z,45.97
2019-02-26T12:08:50.059Z,47.28
2019-02-26T12:09:48.696Z,47.51
2019-02-26T12:10:48.684Z,47.00
2019-02-26T12:11:48.679Z,47.71
2019-02-26T12:12:51.342Z,47.61
2019-02-26T12:13:50.246Z,47.91
2019-02-26T12:14:48.661Z,47.51
2019-02-26T12:15:48.634Z,48.11
2019-02-26T12:16:48.623Z,47.69
2019-02-26T12:17:49.332Z,47.91
2019-02-26T12:18:48.639Z,47.79
2019-02-26T12:19:50.945Z,48.02
2019-02-26T12:20:48.858Z,48.32
2019-02-26T12:21:49.510Z,48.32
2019-02-26T12:22:49.729Z,48.32
2019-02-26T12:23:48.536Z,48.63
2019-02-26T12:24:53.081Z,48.83
2019-02-26T12:25:49.873Z,49.36
2019-02-26T12:26:49.964Z,49.05
2019-02-26T12:27:48.499Z,49.36
2019-02-26T12:28:48.531Z,49.05
2019-02-26T12:29:51.609Z,49.26
2019-02-26T12:30:48.463Z,50.37
2019-02-26T12:31:50.205Z,49.97
2019-02-26T12:32:49.996Z,50.07
2019-02-26T12:33:48.470Z,50.40
2019-02-26T12:34:51.276Z,50.70
2019-02-26T12:35:48.420Z,50.40
2019-02-26T12:36:51.223Z,50.29
2019-02-26T12:37:50.206Z,51.01
2019-02-26T12:38:50.343Z,51.34
2019-02-26T12:39:49.966Z,51.03
2019-02-26T12:40:50.761Z,51.44
2019-02-26T12:41:49.360Z,51.44
2019-02-26T12:42:48.335Z,51.34
2019-02-26T12:43:48.325Z,51.64
2019-02-26T12:44:48.395Z,51.75
2019-02-26T12:45:48.308Z,51.64
2019-02-26T12:46:50.888Z,51.64
2019-02-26T12:47:49.476Z,51.75
2019-02-26T12:48:50.314Z,52.12
2019-02-26T12:49:48.313Z,52.03
2019-02-26T12:50:48.266Z,52.05
2019-02-26T12:51:50.336Z,51.51
2019-02-26T12:52:50.959Z,51.11